Time,TemperatureF,DewpointF,PressureIn,WindDirection,WindDirectionDegrees,WindSpeedMPH,WindSpeedGustMPH,Humidity,HourlyPrecipIn,Conditions,Clouds,dailyrainin,SoftwareType,DateUTC
2013-04-09 00:00:00,45.0,41.1,29.52,NE,50,1.0,6.0,86,0.07,,,0.07,VWS V14.01,2013-04-09 07:00:00,
2013-04-09 00:05:00,44.8,40.6,29.52,ENE,63,6.0,10.0,85,0.07,,,0.00,VWS V14.01,2013-04-09 07:05:00,
2013-04-09 00:10:00,44.5,40.3,29.53,ENE,68,2.0,7.0,85,0.06,,,0.00,VWS V14.01,2013-04-09 07:10:00,
2013-04-09 00:15:00,44.5,40.3,29.53,ENE,68,1.0,4.0,85,0.07,,,0.01,VWS V14.01,2013-04-09 07:15:00,
2013-04-09 00:20:00,44.3,40.1,29.52,ENE,68,2.0,4.0,85,0.07,,,0.01,VWS V14.01,2013-04-09 07:20:00,
2013-04-09 00:25:00,44.2,40.0,29.52,ENE,68,3.0,8.0,85,0.05,,,0.01,VWS V14.01,2013-04-09 07:25:00,
2013-04-09 00:30:00,44.1,39.9,29.53,ENE,69,1.0,7.0,85,0.04,,,0.01,VWS V14.01,2013-04-09 07:30:00,
2013-04-09 00:35:00,44.1,40.2,29.53,ENE,71,3.0,7.0,86,0.03,,,0.01,VWS V14.01,2013-04-09 07:35:00,
2013-04-09 00:40:00,44.1,39.9,29.52,ENE,73,2.0,7.0,85,0.02,,,0.01,VWS V14.01,2013-04-09 07:40:00,
2013-04-09 00:45:00,44.3,39.8,29.52,ENE,73,0.0,3.0,84,0.02,,,0.01,VWS V14.01,2013-04-09 07:45:00,
2013-04-09 00:50:00,44.4,39.9,29.52,ENE,73,0.0,0.0,84,0.01,,,0.01,VWS V14.01,2013-04-09 07:50:00,
2013-04-09 00:55:00,44.4,39.9,29.52,ENE,73,0.0,1.0,84,0.01,,,0.01,VWS V14.01,2013-04-09 07:55:00,
2013-04-09 01:06:00,44.6,40.7,29.52,ENE,73,0.0,1.0,86,0.01,,,0.01,VWS V14.01,2013-04-09 08:06:00,
2013-04-09 01:11:00,44.7,40.5,29.53,ENE,73,1.0,2.0,85,0.01,,,0.01,VWS V14.01,2013-04-09 08:11:00,
2013-04-09 01:16:00,44.7,40.5,29.53,ENE,73,0.0,2.0,85,0.01,,,0.01,VWS V14.01,2013-04-09 08:16:00,
2013-04-09 01:21:00,44.9,40.4,29.53,ENE,73,1.0,4.0,84,0.00,,,0.01,VWS V14.01,2013-04-09 08:21:00,
2013-04-09 01:26:00,45.0,39.8,29.53,ENE,74,0.0,6.0,82,0.00,,,0.01,VWS V14.01,2013-04-09 08:26:00,
2013-04-09 01:31:00,45.0,40.5,29.53,ENE,74,4.0,4.0,84,0.00,,,0.01,VWS V14.01,2013-04-09 08:31:00,
2013-04-09 01:36:00,44.9,40.7,29.53,ESE,123,2.0,4.0,85,0.00,,,0.01,VWS V14.01,2013-04-09 08:36:00,
2013-04-09 01:46:00,44.8,41.2,29.53,SSE,152,4.0,11.0,87,0.00,,,0.01,VWS V14.01,2013-04-09 08:46:00,
2013-04-09 01:51:00,44.7,41.4,29.54,SSE,152,5.0,6.0,88,0.00,,,0.01,VWS V14.01,2013-04-09 08:51:00,
2013-04-09 01:56:00,44.6,41.3,29.53,SSE,152,5.0,8.0,88,0.00,,,0.01,VWS V14.01,2013-04-09 08:56:00,
2013-04-09 02:01:00,44.5,41.5,29.54,SSE,158,2.0,6.0,89,0.00,,,0.01,VWS V14.01,2013-04-09 09:01:00,
2013-04-09 02:06:00,44.5,41.5,29.54,SSE,158,4.0,6.0,89,0.00,,,0.01,VWS V14.01,2013-04-09 09:06:00,
2013-04-09 02:11:00,44.5,41.5,29.54,South,169,8.0,8.0,89,0.00,,,0.01,VWS V14.01,2013-04-09 09:11:00,
2013-04-09 02:16:00,44.4,41.4,29.54,South,191,5.0,7.0,89,0.00,,,0.01,VWS V14.01,2013-04-09 09:16:00,
2013-04-09 02:21:00,44.4,41.4,29.54,SSW,192,4.0,5.0,89,0.00,,,0.01,VWS V14.01,2013-04-09 09:21:00,
2013-04-09 02:26:00,44.5,41.5,29.54,SSW,192,1.0,4.0,89,0.00,,,0.01,VWS V14.01,2013-04-09 09:26:00,
2013-04-09 02:31:00,44.5,41.8,29.54,SSW,192,5.0,6.0,90,0.00,,,0.01,VWS V14.01,2013-04-09 09:31:00,
2013-04-09 02:36:00,44.6,41.8,29.55,SSW,192,4.0,6.0,90,0.00,,,0.01,VWS V14.01,2013-04-09 09:36:00,
2013-04-09 02:41:00,44.7,42.0,29.55,SSW,192,4.0,6.0,90,0.00,,,0.01,VWS V14.01,2013-04-09 09:41:00,
2013-04-09 02:46:00,44.9,42.2,29.55,SSW,192,4.0,6.0,90,0.00,,,0.01,VWS V14.01,2013-04-09 09:46:00,
2013-04-09 02:52:00,45.0,42.2,29.55,SSW,192,1.0,4.0,90,0.00,,,0.01,VWS V14.01,2013-04-09 09:52:00,
2013-04-09 02:57:00,45.1,42.3,29.55,SSW,192,2.0,5.0,90,0.00,,,0.01,VWS V14.01,2013-04-09 09:57:00,
2013-04-09 03:02:00,45.2,42.5,29.55,SSW,192,1.0,3.0,90,0.00,,,0.01,VWS V14.01,2013-04-09 10:02:00,
2013-04-09 03:07:00,45.3,42.3,29.55,SSW,192,1.0,3.0,89,0.00,,,0.01,VWS V14.01,2013-04-09 10:07:00,
2013-04-09 03:12:00,45.5,42.5,29.55,SSW,192,0.0,4.0,89,0.00,,,0.01,VWS V14.01,2013-04-09 10:12:00,
2013-04-09 03:17:00,45.6,42.5,29.56,SSW,192,3.0,4.0,89,0.00,,,0.01,VWS V14.01,2013-04-09 10:17:00,
2013-04-09 03:22:00,45.7,42.7,29.56,SSW,192,2.0,5.0,89,0.00,,,0.01,VWS V14.01,2013-04-09 10:22:00,
2013-04-09 03:27:00,45.8,42.5,29.56,SSW,192,2.0,4.0,88,0.00,,,0.01,VWS V14.01,2013-04-09 10:27:00,
2013-04-09 03:32:00,45.9,42.3,29.56,SSW,192,3.0,4.0,87,0.00,,,0.01,VWS V14.01,2013-04-09 10:32:00,
2013-04-09 03:37:00,46.0,42.3,29.57,SSW,192,1.0,3.0,87,0.00,,,0.01,VWS V14.01,2013-04-09 10:37:00,
2013-04-09 03:42:00,46.1,42.8,29.57,SSW,192,6.0,6.0,88,0.01,,,0.02,VWS V14.01,2013-04-09 10:42:00,
2013-04-09 03:47:00,46.1,42.5,29.57,SSW,192,1.0,5.0,87,0.01,,,0.02,VWS V14.01,2013-04-09 10:47:00,
2013-04-09 03:52:00,46.1,41.5,29.57,SSW,192,4.0,7.0,84,0.01,,,0.02,VWS V14.01,2013-04-09 10:52:00,
2013-04-09 03:57:00,46.3,41.4,29.58,SSW,192,4.0,6.0,83,0.01,,,0.02,VWS V14.01,2013-04-09 10:57:00,
2013-04-09 04:02:00,46.4,41.8,29.58,SSW,192,3.0,5.0,84,0.01,,,0.02,VWS V14.01,2013-04-09 11:02:00,
2013-04-09 04:11:00,46.4,41.2,29.57,SSW,198,5.0,10.0,82,0.01,,,0.02,VWS V14.01,2013-04-09 11:11:00,
2013-04-09 04:16:00,46.5,41.0,29.58,SSW,206,6.0,9.0,81,0.01,,,0.02,VWS V14.01,2013-04-09 11:16:00,
2013-04-09 04:21:00,46.7,41.2,29.58,SSW,211,5.0,10.0,81,0.01,,,0.02,VWS V14.01,2013-04-09 11:21:00,
2013-04-09 04:26:00,46.8,41.0,29.58,SW,214,2.0,10.0,80,0.01,,,0.02,VWS V14.01,2013-04-09 11:26:00,
2013-04-09 04:31:00,46.8,41.3,29.58,SW,214,4.0,6.0,81,0.01,,,0.02,VWS V14.01,2013-04-09 11:31:00,
2013-04-09 04:37:00,46.9,41.1,29.59,SW,214,5.0,8.0,80,0.01,,,0.02,VWS V14.01,2013-04-09 11:37:00,
2013-04-09 04:42:00,46.9,40.7,29.59,SW,217,3.0,10.0,79,0.01,,,0.02,VWS V14.01,2013-04-09 11:42:00,
2013-04-09 04:47:00,47.0,40.8,29.59,SW,215,4.0,8.0,79,0.00,,,0.02,VWS V14.01,2013-04-09 11:47:00,
2013-04-09 04:52:00,47.0,40.8,29.59,SW,215,5.0,8.0,79,0.00,,,0.02,VWS V14.01,2013-04-09 11:52:00,
2013-04-09 04:57:00,47.0,40.8,29.60,SW,214,4.0,8.0,79,0.00,,,0.02,VWS V14.01,2013-04-09 11:57:00,
2013-04-09 05:02:00,47.0,40.8,29.60,SW,214,4.0,6.0,79,0.00,,,0.02,VWS V14.01,2013-04-09 12:02:00,
2013-04-09 05:07:00,47.0,40.5,29.60,SW,214,4.0,7.0,78,0.00,,,0.02,VWS V14.01,2013-04-09 12:07:00,
2013-04-09 05:12:00,47.0,39.5,29.60,SW,215,7.0,7.0,75,0.00,,,0.02,VWS V14.01,2013-04-09 12:12:00,
2013-04-09 05:17:00,47.1,39.2,29.61,SW,222,2.0,6.0,74,0.00,,,0.02,VWS V14.01,2013-04-09 12:17:00,
2013-04-09 05:22:00,47.1,39.2,29.61,SW,222,1.0,7.0,74,0.00,,,0.02,VWS V14.01,2013-04-09 12:22:00,
2013-04-09 05:28:00,47.1,38.9,29.60,SW,221,4.0,8.0,73,0.00,,,0.02,VWS V14.01,2013-04-09 12:28:00,
2013-04-09 05:33:00,47.1,38.5,29.61,SW,221,4.0,8.0,72,0.00,,,0.02,VWS V14.01,2013-04-09 12:33:00,
2013-04-09 05:38:00,47.2,39.0,29.61,SW,221,5.0,5.0,73,0.00,,,0.02,VWS V14.01,2013-04-09 12:38:00,
2013-04-09 05:43:00,47.2,38.3,29.61,SW,220,5.0,7.0,71,0.00,,,0.02,VWS V14.01,2013-04-09 12:43:00,
2013-04-09 05:48:00,47.1,38.2,29.61,SW,220,4.0,8.0,71,0.00,,,0.02,VWS V14.01,2013-04-09 12:48:00,
2013-04-09 05:53:00,47.1,38.5,29.61,SW,220,4.0,6.0,72,0.00,,,0.02,VWS V14.01,2013-04-09 12:53:00,
2013-04-09 05:58:00,47.1,38.5,29.61,SW,220,4.0,9.0,72,0.00,,,0.02,VWS V14.01,2013-04-09 12:58:00,
2013-04-09 06:03:00,47.0,38.5,29.62,SW,220,3.0,7.0,72,0.00,,,0.02,VWS V14.01,2013-04-09 13:03:00,
2013-04-09 06:08:00,47.0,38.5,29.62,SW,220,6.0,7.0,72,0.00,,,0.02,VWS V14.01,2013-04-09 13:08:00,
2013-04-09 06:13:00,47.0,38.5,29.62,SW,220,3.0,6.0,72,0.00,,,0.02,VWS V14.01,2013-04-09 13:13:00,
2013-04-09 06:18:00,47.1,38.5,29.63,SW,220,1.0,5.0,72,0.00,,,0.02,VWS V14.01,2013-04-09 13:18:00,
2013-04-09 06:23:00,47.1,38.5,29.63,SW,220,0.0,2.0,72,0.00,,,0.02,VWS V14.01,2013-04-09 13:23:00,
2013-04-09 06:28:00,47.2,38.7,29.63,SW,220,0.0,4.0,72,0.00,,,0.02,VWS V14.01,2013-04-09 13:28:00,
2013-04-09 06:33:00,47.2,38.7,29.64,SW,220,0.0,3.0,72,0.00,,,0.02,VWS V14.01,2013-04-09 13:33:00,
2013-04-09 06:38:00,47.3,38.0,29.64,SW,220,0.0,6.0,70,0.00,,,0.02,VWS V14.01,2013-04-09 13:38:00,
2013-04-09 06:43:00,47.4,38.1,29.64,SW,220,0.0,5.0,70,0.00,,,0.02,VWS V14.01,2013-04-09 13:43:00,
2013-04-09 06:48:00,47.5,37.8,29.64,SW,220,3.0,6.0,69,0.00,,,0.02,VWS V14.01,2013-04-09 13:48:00,
2013-04-09 06:53:00,47.7,37.7,29.64,SW,220,2.0,8.0,68,0.00,,,0.02,VWS V14.01,2013-04-09 13:53:00,
2013-04-09 06:58:00,47.9,37.9,29.65,SW,220,3.0,5.0,68,0.00,,,0.02,VWS V14.01,2013-04-09 13:58:00,
2013-04-09 07:03:00,48.1,38.4,29.65,SW,220,1.0,6.0,69,0.00,,,0.02,VWS V14.01,2013-04-09 14:03:00,
2013-04-09 07:08:00,48.2,38.5,29.65,SW,220,4.0,6.0,69,0.00,,,0.02,VWS V14.01,2013-04-09 14:08:00,
2013-04-09 07:13:00,48.3,38.6,29.65,SW,220,3.0,7.0,69,0.00,,,0.02,VWS V14.01,2013-04-09 14:13:00,
2013-04-09 07:18:00,48.5,38.1,29.66,SW,218,4.0,9.0,67,0.00,,,0.02,VWS V14.01,2013-04-09 14:18:00,
2013-04-09 07:23:00,48.5,38.1,29.66,SW,216,2.0,7.0,67,0.00,,,0.02,VWS V14.01,2013-04-09 14:23:00,
2013-04-09 07:28:00,48.6,37.8,29.66,SW,214,5.0,8.0,66,0.00,,,0.02,VWS V14.01,2013-04-09 14:28:00,
2013-04-09 07:33:00,48.6,37.4,29.66,SSW,209,6.0,11.0,65,0.01,,,0.03,VWS V14.01,2013-04-09 14:33:00,
2013-04-09 07:38:00,48.6,37.0,29.67,SSW,207,3.0,8.0,64,0.01,,,0.03,VWS V14.01,2013-04-09 14:38:00,
2013-04-09 07:43:00,48.7,36.7,29.67,SSW,207,4.0,9.0,63,0.01,,,0.03,VWS V14.01,2013-04-09 14:43:00,
2013-04-09 07:48:00,48.8,36.4,29.67,SSW,205,4.0,8.0,62,0.01,,,0.03,VWS V14.01,2013-04-09 14:48:00,
2013-04-09 07:53:00,48.8,36.0,29.67,SW,218,3.0,12.0,61,0.01,,,0.03,VWS V14.01,2013-04-09 14:53:00,
2013-04-09 08:06:00,49.3,36.0,29.67,SSW,210,8.0,14.0,60,0.01,,,0.03,VWS V14.01,2013-04-09 15:06:00,
2013-04-09 08:14:00,49.6,35.9,29.68,SW,217,6.0,13.0,59,0.01,,,0.03,VWS V14.01,2013-04-09 15:14:00,
2013-04-09 08:19:00,50.2,36.4,29.68,SSW,210,11.0,11.0,59,0.01,,,0.03,VWS V14.01,2013-04-09 15:19:00,
2013-04-09 08:24:00,50.6,35.9,29.68,SW,216,9.0,14.0,57,0.01,,,0.03,VWS V14.01,2013-04-09 15:24:00,
2013-04-09 08:34:00,50.7,36.5,29.69,SSW,197,5.0,9.0,58,0.01,,,0.03,VWS V14.01,2013-04-09 15:34:00,
2013-04-09 08:39:00,51.4,36.7,29.70,SSW,194,6.0,8.0,57,0.00,,,0.03,VWS V14.01,2013-04-09 15:39:00,
2013-04-09 08:44:00,51.8,36.6,29.70,SW,220,4.0,12.0,56,0.00,,,0.03,VWS V14.01,2013-04-09 15:44:00,
2013-04-09 08:51:00,52.0,35.9,29.70,SW,216,8.0,13.0,54,0.00,,,0.03,VWS V14.01,2013-04-09 15:51:00,
2013-04-09 08:56:00,52.1,36.0,29.70,SW,223,9.0,15.0,54,0.00,,,0.03,VWS V14.01,2013-04-09 15:56:00,
2013-04-09 09:01:00,52.9,35.8,29.70,SW,216,12.0,13.0,52,0.00,,,0.03,VWS V14.01,2013-04-09 16:01:00,
2013-04-09 09:06:00,53.3,35.7,29.70,SSW,205,7.0,14.0,51,0.00,,,0.03,VWS V14.01,2013-04-09 16:06:00,
2013-04-09 09:14:00,53.8,35.6,29.70,SW,219,7.0,14.0,50,0.00,,,0.03,VWS V14.01,2013-04-09 16:14:00,
2013-04-09 09:19:00,54.3,36.1,29.70,SW,222,10.0,15.0,50,0.00,,,0.03,VWS V14.01,2013-04-09 16:19:00,
2013-04-09 09:24:00,54.6,35.3,29.70,WNW,290,6.0,16.0,48,0.00,,,0.03,VWS V14.01,2013-04-09 16:24:00,
2013-04-09 09:29:00,55.1,36.3,29.70,SSW,212,4.0,13.0,49,0.00,,,0.03,VWS V14.01,2013-04-09 16:29:00,
2013-04-09 09:34:00,55.7,34.7,29.70,SW,224,2.0,14.0,45,0.00,,,0.03,VWS V14.01,2013-04-09 16:34:00,
2013-04-09 09:39:00,55.7,34.7,29.71,SW,227,5.0,15.0,45,0.00,,,0.03,VWS V14.01,2013-04-09 16:39:00,
2013-04-09 09:44:00,55.1,34.7,29.71,West,264,7.0,16.0,46,0.00,,,0.03,VWS V14.01,2013-04-09 16:44:00,
2013-04-09 09:49:00,55.5,34.0,29.71,West,262,9.0,11.0,44,0.00,,,0.03,VWS V14.01,2013-04-09 16:49:00,
2013-04-09 09:54:00,56.2,34.0,29.71,SW,234,5.0,11.0,43,0.00,,,0.03,VWS V14.01,2013-04-09 16:54:00,
2013-04-09 10:00:00,57.0,35.3,29.71,SSW,207,10.0,13.0,44,0.00,,,0.03,VWS V14.01,2013-04-09 17:00:00,
2013-04-09 10:05:00,56.9,33.5,29.72,SW,218,6.0,12.0,41,0.00,,,0.03,VWS V14.01,2013-04-09 17:05:00,
2013-04-09 10:10:00,57.0,34.8,29.72,West,259,7.0,17.0,43,0.00,,,0.03,VWS V14.01,2013-04-09 17:10:00,
2013-04-09 10:15:00,57.2,33.7,29.72,SSW,211,7.0,16.0,41,0.00,,,0.03,VWS V14.01,2013-04-09 17:15:00,
2013-04-09 10:20:00,57.5,34.0,29.72,SW,222,3.0,17.0,41,0.00,,,0.03,VWS V14.01,2013-04-09 17:20:00,
2013-04-09 10:25:00,58.0,34.5,29.72,SW,223,4.0,15.0,41,0.00,,,0.03,VWS V14.01,2013-04-09 17:25:00,
2013-04-09 10:30:00,58.7,33.8,29.72,SW,226,6.0,14.0,39,0.00,,,0.03,VWS V14.01,2013-04-09 17:30:00,
2013-04-09 10:35:00,58.7,33.8,29.72,SSW,211,4.0,14.0,39,0.00,,,0.03,VWS V14.01,2013-04-09 17:35:00,
2013-04-09 10:40:00,58.6,34.4,29.72,West,263,4.0,14.0,40,0.00,,,0.03,VWS V14.01,2013-04-09 17:40:00,
2013-04-09 10:45:00,59.5,34.5,29.72,SSW,207,9.0,15.0,39,0.00,,,0.03,VWS V14.01,2013-04-09 17:45:00,
2013-04-09 10:50:00,59.5,33.9,29.72,SW,221,9.0,17.0,38,0.00,,,0.03,VWS V14.01,2013-04-09 17:50:00,
2013-04-09 10:55:00,60.4,34.0,29.72,SW,217,12.0,18.0,37,0.00,,,0.03,VWS V14.01,2013-04-09 17:55:00,
2013-04-09 11:00:00,59.6,31.9,29.72,SW,215,8.0,17.0,35,0.00,,,0.03,VWS V14.01,2013-04-09 18:00:00,
2013-04-09 11:05:00,59.9,32.2,29.72,West,276,7.0,14.0,35,0.00,,,0.03,VWS V14.01,2013-04-09 18:05:00,
2013-04-09 11:10:00,60.0,32.3,29.72,SW,215,7.0,11.0,35,0.00,,,0.03,VWS V14.01,2013-04-09 18:10:00,
2013-04-09 11:15:00,59.8,32.1,29.72,SW,229,5.0,19.0,35,0.00,,,0.03,VWS V14.01,2013-04-09 18:15:00,
2013-04-09 11:20:00,60.1,32.4,29.72,WSW,245,6.0,16.0,35,0.00,,,0.03,VWS V14.01,2013-04-09 18:20:00,
2013-04-09 11:25:00,60.7,33.6,29.72,WSW,244,6.0,13.0,36,0.00,,,0.03,VWS V14.01,2013-04-09 18:25:00,
2013-04-09 11:30:00,60.7,31.5,29.72,SW,221,8.0,14.0,33,0.00,,,0.03,VWS V14.01,2013-04-09 18:30:00,
2013-04-09 11:35:00,61.3,32.0,29.73,SW,216,12.0,16.0,33,0.00,,,0.03,VWS V14.01,2013-04-09 18:35:00,
2013-04-09 11:40:00,61.2,31.9,29.72,West,267,8.0,15.0,33,0.00,,,0.03,VWS V14.01,2013-04-09 18:40:00,
2013-04-09 11:45:00,61.3,31.2,29.72,West,270,8.0,18.0,32,0.00,,,0.03,VWS V14.01,2013-04-09 18:45:00,
2013-04-09 11:50:00,60.4,30.4,29.73,West,261,7.0,14.0,32,0.00,,,0.03,VWS V14.01,2013-04-09 18:50:00,
2013-04-09 11:55:00,60.2,30.2,29.73,West,279,9.0,17.0,32,0.00,,,0.03,VWS V14.01,2013-04-09 18:55:00,
2013-04-09 12:00:00,60.1,30.9,29.72,SW,232,3.0,14.0,33,0.00,,,0.03,VWS V14.01,2013-04-09 19:00:00,
2013-04-09 12:05:00,60.1,30.2,29.73,WSW,257,3.0,15.0,32,0.00,,,0.03,VWS V14.01,2013-04-09 19:05:00,
2013-04-09 12:10:00,59.5,31.1,29.73,WSW,251,7.0,11.0,34,0.00,,,0.03,VWS V14.01,2013-04-09 19:10:00,
2013-04-09 12:15:00,58.8,30.5,29.73,WSW,240,6.0,14.0,34,0.00,,,0.03,VWS V14.01,2013-04-09 19:15:00,
2013-04-09 12:20:00,58.4,29.4,29.73,SW,221,3.0,16.0,33,0.00,,,0.03,VWS V14.01,2013-04-09 19:20:00,
2013-04-09 12:25:00,58.5,30.2,29.73,SW,227,7.0,14.0,34,0.00,,,0.03,VWS V14.01,2013-04-09 19:25:00,
2013-04-09 12:30:00,58.7,31.1,29.73,SW,219,10.0,10.0,35,0.00,,,0.03,VWS V14.01,2013-04-09 19:30:00,
2013-04-09 12:35:00,59.1,30.8,29.73,West,267,2.0,13.0,34,0.00,,,0.03,VWS V14.01,2013-04-09 19:35:00,
2013-04-09 12:40:00,60.4,31.2,29.72,SW,229,16.0,19.0,33,0.00,,,0.03,VWS V14.01,2013-04-09 19:40:00,
2013-04-09 12:45:00,60.8,29.2,29.73,SW,218,9.0,21.0,30,0.00,,,0.03,VWS V14.01,2013-04-09 19:45:00,
2013-04-09 12:50:00,60.4,30.4,29.73,SSW,204,5.0,12.0,32,0.00,,,0.03,VWS V14.01,2013-04-09 19:50:00,
2013-04-09 12:55:00,60.1,29.4,29.73,WSW,244,7.0,15.0,31,0.00,,,0.03,VWS V14.01,2013-04-09 19:55:00,
2013-04-09 13:00:00,60.0,30.8,29.73,SW,219,7.0,11.0,33,0.00,,,0.03,VWS V14.01,2013-04-09 20:00:00,
2013-04-09 13:05:00,59.8,29.9,29.73,SW,231,5.0,13.0,32,0.00,,,0.03,VWS V14.01,2013-04-09 20:05:00,
2013-04-09 13:10:00,59.3,29.5,29.73,SW,225,7.0,12.0,32,0.00,,,0.03,VWS V14.01,2013-04-09 20:10:00,
2013-04-09 13:15:00,59.4,28.8,29.73,West,267,3.0,11.0,31,0.00,,,0.03,VWS V14.01,2013-04-09 20:15:00,
2013-04-09 13:20:00,59.4,28.0,29.73,West,278,8.0,17.0,30,0.00,,,0.03,VWS V14.01,2013-04-09 20:20:00,
2013-04-09 13:25:00,59.2,29.4,29.73,West,261,5.0,12.0,32,0.00,,,0.03,VWS V14.01,2013-04-09 20:25:00,
2013-04-09 13:31:00,59.4,30.3,29.73,West,279,3.0,10.0,33,0.00,,,0.03,VWS V14.01,2013-04-09 20:31:00,
2013-04-09 13:36:00,59.7,29.0,29.74,SW,216,10.0,14.0,31,0.00,,,0.03,VWS V14.01,2013-04-09 20:36:00,
2013-04-09 13:41:00,59.7,29.0,29.73,SW,214,12.0,12.0,31,0.00,,,0.03,VWS V14.01,2013-04-09 20:41:00,
2013-04-09 13:46:00,59.8,29.1,29.74,West,279,10.0,11.0,31,0.00,,,0.03,VWS V14.01,2013-04-09 20:46:00,
2013-04-09 13:51:00,60.3,29.6,29.74,WSW,252,0.0,13.0,31,0.00,,,0.03,VWS V14.01,2013-04-09 20:51:00,
2013-04-09 13:56:00,61.5,29.0,29.73,SW,215,9.0,9.0,29,0.00,,,0.03,VWS V14.01,2013-04-09 20:56:00,
2013-04-09 14:01:00,61.4,28.9,29.73,West,281,4.0,17.0,29,0.00,,,0.03,VWS V14.01,2013-04-09 21:01:00,
2013-04-09 14:16:00,61.8,27.5,29.74,SW,217,3.0,12.0,27,0.00,,,0.03,VWS V14.01,2013-04-09 21:16:00,
2013-04-09 14:21:00,61.4,27.1,29.74,West,262,7.0,12.0,27,0.00,,,0.03,VWS V14.01,2013-04-09 21:21:00,
2013-04-09 14:26:00,61.5,28.1,29.74,WSW,250,4.0,10.0,28,0.00,,,0.03,VWS V14.01,2013-04-09 21:26:00,
2013-04-09 14:31:00,62.2,27.8,29.74,SW,222,7.0,14.0,27,0.00,,,0.03,VWS V14.01,2013-04-09 21:31:00,
2013-04-09 14:36:00,62.4,28.0,29.74,WSW,250,3.0,10.0,27,0.00,,,0.03,VWS V14.01,2013-04-09 21:36:00,
2013-04-09 14:41:00,63.3,28.8,29.74,SW,225,4.0,15.0,27,0.00,,,0.03,VWS V14.01,2013-04-09 21:41:00,
2013-04-09 14:46:00,63.2,27.8,29.73,WSW,243,5.0,15.0,26,0.00,,,0.03,VWS V14.01,2013-04-09 21:46:00,
2013-04-09 14:52:00,62.6,27.3,29.74,SSW,209,9.0,16.0,26,0.00,,,0.03,VWS V14.01,2013-04-09 21:52:00,
2013-04-09 14:57:00,61.7,26.5,29.74,West,281,8.0,9.0,26,0.00,,,0.03,VWS V14.01,2013-04-09 21:57:00,
2013-04-09 15:02:00,61.3,27.1,29.74,WSW,256,6.0,7.0,27,0.00,,,0.03,VWS V14.01,2013-04-09 22:02:00,
2013-04-09 15:07:00,61.4,27.1,29.74,SW,217,0.0,6.0,27,0.00,,,0.03,VWS V14.01,2013-04-09 22:07:00,
2013-04-09 15:12:00,61.3,27.1,29.74,SW,218,2.0,11.0,27,0.00,,,0.03,VWS V14.01,2013-04-09 22:12:00,
2013-04-09 15:17:00,61.4,27.1,29.74,SW,230,9.0,11.0,27,0.00,,,0.03,VWS V14.01,2013-04-09 22:17:00,
2013-04-09 15:22:00,61.7,26.5,29.74,WSW,245,5.0,14.0,26,0.00,,,0.03,VWS V14.01,2013-04-09 22:22:00,
2013-04-09 15:27:00,62.3,25.1,29.74,WNW,285,5.0,14.0,24,0.00,,,0.03,VWS V14.01,2013-04-09 22:27:00,
2013-04-09 15:32:00,61.9,25.7,29.74,SSW,213,8.0,12.0,25,0.00,,,0.03,VWS V14.01,2013-04-09 22:32:00,
2013-04-09 15:37:00,61.8,25.6,29.74,WNW,286,6.0,10.0,25,0.00,,,0.03,VWS V14.01,2013-04-09 22:37:00,
2013-04-09 15:42:00,61.9,25.7,29.74,SSW,211,5.0,10.0,25,0.00,,,0.03,VWS V14.01,2013-04-09 22:42:00,
2013-04-09 15:47:00,63.1,26.7,29.75,West,267,7.0,12.0,25,0.00,,,0.03,VWS V14.01,2013-04-09 22:47:00,
2013-04-09 15:52:00,63.2,24.8,29.74,WNW,301,3.0,14.0,23,0.00,,,0.03,VWS V14.01,2013-04-09 22:52:00,
2013-04-09 15:57:00,63.1,25.8,29.74,West,273,7.0,7.0,24,0.00,,,0.03,VWS V14.01,2013-04-09 22:57:00,
2013-04-09 16:02:00,63.1,25.8,29.75,WSW,242,4.0,13.0,24,0.00,,,0.03,VWS V14.01,2013-04-09 23:02:00,
2013-04-09 16:07:00,62.9,24.6,29.75,WNW,290,6.0,12.0,23,0.00,,,0.03,VWS V14.01,2013-04-09 23:07:00,
2013-04-09 16:12:00,62.6,25.3,29.75,SW,225,3.0,10.0,24,0.00,,,0.03,VWS V14.01,2013-04-09 23:12:00,
2013-04-09 16:17:00,62.3,25.1,29.75,SW,221,8.0,9.0,24,0.00,,,0.03,VWS V14.01,2013-04-09 23:17:00,
2013-04-09 16:22:00,62.2,24.0,29.75,West,281,0.0,5.0,23,0.00,,,0.03,VWS V14.01,2013-04-09 23:22:00,
2013-04-09 16:27:00,62.1,24.9,29.75,West,269,3.0,7.0,24,0.00,,,0.03,VWS V14.01,2013-04-09 23:27:00,
2013-04-09 16:36:00,62.6,24.3,29.75,WNW,284,3.0,10.0,23,0.00,,,0.03,VWS V14.01,2013-04-09 23:36:00,
2013-04-09 16:41:00,62.5,24.2,29.75,SSW,212,5.0,10.0,23,0.00,,,0.03,VWS V14.01,2013-04-09 23:41:00,
2013-04-09 16:46:00,63.1,24.7,29.75,WSW,246,1.0,8.0,23,0.00,,,0.03,VWS V14.01,2013-04-09 23:46:00,
2013-04-09 16:52:00,63.7,25.2,29.75,SW,222,10.0,11.0,23,0.00,,,0.03,VWS V14.01,2013-04-09 23:52:00,
2013-04-09 16:57:00,63.4,23.9,29.76,SW,224,7.0,7.0,22,0.00,,,0.03,VWS V14.01,2013-04-09 23:57:00,
2013-04-09 17:02:00,63.1,23.7,29.76,West,265,7.0,9.0,22,0.00,,,0.03,VWS V14.01,2013-04-10 00:02:00,
2013-04-09 17:07:00,63.0,23.6,29.76,West,263,2.0,4.0,22,0.00,,,0.03,VWS V14.01,2013-04-10 00:07:00,
2013-04-09 17:12:00,62.7,23.3,29.76,West,280,8.0,8.0,22,0.00,,,0.03,VWS V14.01,2013-04-10 00:12:00,
2013-04-09 17:17:00,62.3,23.0,29.76,WNW,284,4.0,10.0,22,0.00,,,0.03,VWS V14.01,2013-04-10 00:17:00,
2013-04-09 17:22:00,62.2,22.9,29.76,West,275,2.0,7.0,22,0.00,,,0.03,VWS V14.01,2013-04-10 00:22:00,
2013-04-09 17:27:00,62.2,22.9,29.76,WNW,285,7.0,7.0,22,0.00,,,0.03,VWS V14.01,2013-04-10 00:27:00,
2013-04-09 17:32:00,62.0,22.8,29.76,SW,224,5.0,10.0,22,0.00,,,0.03,VWS V14.01,2013-04-10 00:32:00,
2013-04-09 17:37:00,61.9,22.7,29.76,WSW,258,3.0,7.0,22,0.00,,,0.03,VWS V14.01,2013-04-10 00:37:00,
2013-04-09 17:42:00,61.9,22.7,29.76,SW,236,3.0,10.0,22,0.00,,,0.03,VWS V14.01,2013-04-10 00:42:00,
2013-04-09 17:47:00,62.0,22.8,29.76,WNW,286,6.0,6.0,22,0.00,,,0.03,VWS V14.01,2013-04-10 00:47:00,
2013-04-09 17:52:00,61.8,22.6,29.77,SW,222,7.0,11.0,22,0.00,,,0.03,VWS V14.01,2013-04-10 00:52:00,
2013-04-09 17:57:00,61.5,22.3,29.77,West,265,3.0,4.0,22,0.00,,,0.03,VWS V14.01,2013-04-10 00:57:00,
2013-04-09 18:02:00,61.3,23.2,29.77,WSW,257,4.0,6.0,23,0.00,,,0.03,VWS V14.01,2013-04-10 01:02:00,
2013-04-09 18:07:00,61.2,23.1,29.77,West,266,3.0,5.0,23,0.00,,,0.03,VWS V14.01,2013-04-10 01:07:00,
2013-04-09 18:12:00,61.3,23.2,29.77,West,274,1.0,4.0,23,0.00,,,0.03,VWS V14.01,2013-04-10 01:12:00,
2013-04-09 18:17:00,61.4,23.3,29.77,West,280,1.0,6.0,23,0.00,,,0.03,VWS V14.01,2013-04-10 01:17:00,
2013-04-09 18:22:00,61.3,22.2,29.77,West,281,0.0,6.0,22,0.00,,,0.03,VWS V14.01,2013-04-10 01:22:00,
2013-04-09 18:28:00,61.0,23.0,29.77,West,259,3.0,6.0,23,0.00,,,0.03,VWS V14.01,2013-04-10 01:28:00,
2013-04-09 18:33:00,60.7,22.7,29.77,West,259,0.0,4.0,23,0.00,,,0.03,VWS V14.01,2013-04-10 01:33:00,
2013-04-09 18:38:00,60.5,23.5,29.78,West,261,4.0,4.0,24,0.00,,,0.03,VWS V14.01,2013-04-10 01:38:00,
2013-04-09 18:43:00,60.3,22.4,29.78,West,262,3.0,8.0,23,0.00,,,0.03,VWS V14.01,2013-04-10 01:43:00,
2013-04-09 18:48:00,59.9,22.0,29.78,West,262,6.0,7.0,23,0.00,,,0.03,VWS V14.01,2013-04-10 01:48:00,
2013-04-09 18:53:00,59.6,21.8,29.78,West,274,6.0,7.0,23,0.00,,,0.03,VWS V14.01,2013-04-10 01:53:00,
2013-04-09 18:58:00,59.3,21.5,29.78,WNW,285,8.0,10.0,23,0.00,,,0.03,VWS V14.01,2013-04-10 01:58:00,
2013-04-09 19:03:00,59.1,22.4,29.79,WNW,303,3.0,3.0,24,0.00,,,0.03,VWS V14.01,2013-04-10 02:03:00,
2013-04-09 19:08:00,59.0,23.2,29.79,WNW,294,0.0,3.0,25,0.00,,,0.03,VWS V14.01,2013-04-10 02:08:00,
2013-04-09 19:13:00,58.8,23.1,29.79,WNW,294,1.0,3.0,25,0.00,,,0.03,VWS V14.01,2013-04-10 02:13:00,
2013-04-09 19:18:00,58.5,21.9,29.79,WNW,294,0.0,2.0,24,0.00,,,0.03,VWS V14.01,2013-04-10 02:18:00,
2013-04-09 19:23:00,58.4,21.8,29.79,NW,310,2.0,5.0,24,0.00,,,0.03,VWS V14.01,2013-04-10 02:23:00,
2013-04-09 19:28:00,58.2,22.6,29.79,NW,310,0.0,4.0,25,0.00,,,0.03,VWS V14.01,2013-04-10 02:28:00,
2013-04-09 19:33:00,58.1,23.4,29.80,NW,310,0.0,1.0,26,0.00,,,0.03,VWS V14.01,2013-04-10 02:33:00,
2013-04-09 19:38:00,57.9,22.3,29.80,NW,310,0.0,2.0,25,0.00,,,0.03,VWS V14.01,2013-04-10 02:38:00,
2013-04-09 19:43:00,57.6,23.0,29.80,NW,310,0.0,1.0,26,0.00,,,0.03,VWS V14.01,2013-04-10 02:43:00,
2013-04-09 19:48:00,57.4,22.8,29.80,NW,310,0.0,1.0,26,0.00,,,0.03,VWS V14.01,2013-04-10 02:48:00,
2013-04-09 19:53:00,57.1,23.5,29.80,NW,310,0.0,3.0,27,0.00,,,0.03,VWS V14.01,2013-04-10 02:53:00,
2013-04-09 19:58:00,56.8,23.2,29.80,NW,310,0.0,1.0,27,0.00,,,0.03,VWS V14.01,2013-04-10 02:58:00,
2013-04-09 20:03:00,56.4,24.6,29.81,NW,310,0.0,0.0,29,0.00,,,0.03,VWS V14.01,2013-04-10 03:03:00,
2013-04-09 20:08:00,56.1,25.9,29.81,NW,310,0.0,0.0,31,0.00,,,0.03,VWS V14.01,2013-04-10 03:08:00,
2013-04-09 20:13:00,55.8,24.9,29.81,NW,310,0.0,0.0,30,0.00,,,0.03,VWS V14.01,2013-04-10 03:13:00,
2013-04-09 20:18:00,55.3,26.7,29.82,NW,310,0.0,0.0,33,0.00,,,0.03,VWS V14.01,2013-04-10 03:18:00,
2013-04-09 20:23:00,55.0,26.5,29.82,NW,310,0.0,0.0,33,0.00,,,0.03,VWS V14.01,2013-04-10 03:23:00,
2013-04-09 20:28:00,54.6,26.8,29.82,NW,310,0.0,0.0,34,0.00,,,0.03,VWS V14.01,2013-04-10 03:28:00,
2013-04-09 20:33:00,54.3,26.5,29.82,NW,310,0.0,0.0,34,0.00,,,0.03,VWS V14.01,2013-04-10 03:33:00,
2013-04-09 20:38:00,53.9,24.7,29.83,NW,310,0.0,0.0,32,0.00,,,0.03,VWS V14.01,2013-04-10 03:38:00,
2013-04-09 20:43:00,53.6,25.2,29.83,NW,310,0.0,0.0,33,0.00,,,0.03,VWS V14.01,2013-04-10 03:43:00,
2013-04-09 20:48:00,53.3,25.0,29.83,NW,310,0.0,0.0,33,0.00,,,0.03,VWS V14.01,2013-04-10 03:48:00,
2013-04-09 20:53:00,53.0,25.4,29.83,NW,310,0.0,0.0,34,0.00,,,0.03,VWS V14.01,2013-04-10 03:53:00,
2013-04-09 20:58:00,52.8,25.9,29.84,NW,310,0.0,0.0,35,0.00,,,0.03,VWS V14.01,2013-04-10 03:58:00,
2013-04-09 21:01:00,52.6,27.7,29.84,NW,310,0.0,0.0,38,0.00,,,0.03,VWS V14.01,2013-04-10 04:01:00,
2013-04-09 21:03:00,52.4,27.6,29.84,NW,310,0.0,0.0,38,0.00,,,0.03,VWS V14.01,2013-04-10 04:03:00,
2013-04-09 21:08:00,52.1,27.9,29.84,NW,310,0.0,0.0,39,0.00,,,0.03,VWS V14.01,2013-04-10 04:08:00,
2013-04-09 21:13:00,51.7,26.3,29.84,NW,310,0.0,0.0,37,0.00,,,0.03,VWS V14.01,2013-04-10 04:13:00,
2013-04-09 21:18:00,51.5,26.8,29.84,NW,310,0.0,0.0,38,0.00,,,0.03,VWS V14.01,2013-04-10 04:18:00,
2013-04-09 21:23:00,51.2,28.3,29.84,NW,310,0.0,0.0,41,0.00,,,0.03,VWS V14.01,2013-04-10 04:23:00,
2013-04-09 21:28:00,50.7,28.5,29.85,NW,310,0.0,0.0,42,0.00,,,0.03,VWS V14.01,2013-04-10 04:28:00,
2013-04-09 21:33:00,50.4,29.3,29.85,NW,310,0.0,0.0,44,0.00,,,0.03,VWS V14.01,2013-04-10 04:33:00,
2013-04-09 21:38:00,50.2,29.1,29.85,NW,310,0.0,0.0,44,0.00,,,0.03,VWS V14.01,2013-04-10 04:38:00,
2013-04-09 21:43:00,49.8,29.3,29.85,NW,310,0.0,0.0,45,0.00,,,0.03,VWS V14.01,2013-04-10 04:43:00,
2013-04-09 21:48:00,49.5,27.4,29.85,NW,310,0.0,0.0,42,0.00,,,0.03,VWS V14.01,2013-04-10 04:48:00,
2013-04-09 21:53:00,49.3,29.4,29.85,NW,310,0.0,0.0,46,0.00,,,0.03,VWS V14.01,2013-04-10 04:53:00,
2013-04-09 21:58:00,49.1,29.2,29.85,NW,310,0.0,0.0,46,0.00,,,0.03,VWS V14.01,2013-04-10 04:58:00,
2013-04-09 22:03:00,49.0,29.1,29.85,NW,310,0.0,1.0,46,0.00,,,0.03,VWS V14.01,2013-04-10 05:03:00,
2013-04-09 22:08:00,48.9,28.5,29.85,NW,310,0.0,0.0,45,0.00,,,0.03,VWS V14.01,2013-04-10 05:08:00,
2013-04-09 22:13:00,48.8,29.0,29.86,NW,310,0.0,0.0,46,0.00,,,0.03,VWS V14.01,2013-04-10 05:13:00,
2013-04-09 22:18:00,48.9,28.5,29.86,NW,310,0.0,1.0,45,0.00,,,0.03,VWS V14.01,2013-04-10 05:18:00,
2013-04-09 22:23:00,49.0,28.0,29.86,NW,310,0.0,0.0,44,0.00,,,0.03,VWS V14.01,2013-04-10 05:23:00,
2013-04-09 22:28:00,49.2,27.7,29.86,NW,310,1.0,2.0,43,0.00,,,0.03,VWS V14.01,2013-04-10 05:28:00,
2013-04-09 22:33:00,49.4,27.9,29.86,NW,310,1.0,2.0,43,0.00,,,0.03,VWS V14.01,2013-04-10 05:33:00,
2013-04-09 22:38:00,49.7,27.0,29.86,WNW,287,3.0,5.0,41,0.00,,,0.03,VWS V14.01,2013-04-10 05:38:00,
2013-04-09 22:43:00,50.1,26.1,29.86,WNW,287,2.0,3.0,39,0.00,,,0.03,VWS V14.01,2013-04-10 05:43:00,
2013-04-09 22:48:00,50.5,25.9,29.86,WNW,286,3.0,4.0,38,0.00,,,0.03,VWS V14.01,2013-04-10 05:48:00,
2013-04-09 22:53:00,50.8,26.1,29.86,WNW,286,2.0,4.0,38,0.00,,,0.03,VWS V14.01,2013-04-10 05:53:00,
2013-04-09 22:58:00,51.1,26.4,29.87,WNW,283,0.0,1.0,38,0.00,,,0.03,VWS V14.01,2013-04-10 05:58:00,
2013-04-09 23:03:00,51.3,24.6,29.87,WSW,250,0.0,7.0,35,0.00,,,0.03,VWS V14.01,2013-04-10 06:03:00,
2013-04-09 23:08:00,51.7,25.6,29.87,WSW,247,1.0,4.0,36,0.00,,,0.03,VWS V14.01,2013-04-10 06:08:00,
2013-04-09 23:13:00,52.0,25.9,29.88,WSW,247,6.0,8.0,36,0.00,,,0.03,VWS V14.01,2013-04-10 06:13:00,
2013-04-09 23:18:00,52.1,26.0,29.87,WSW,237,5.0,7.0,36,0.00,,,0.03,VWS V14.01,2013-04-10 06:18:00,
2013-04-09 23:23:00,52.1,26.0,29.87,WSW,241,1.0,5.0,36,0.00,,,0.03,VWS V14.01,2013-04-10 06:23:00,
2013-04-09 23:28:00,52.1,26.6,29.88,West,264,2.0,6.0,37,0.00,,,0.03,VWS V14.01,2013-04-10 06:28:00,
2013-04-09 23:33:00,52.2,28.0,29.88,WSW,252,1.0,8.0,39,0.00,,,0.03,VWS V14.01,2013-04-10 06:33:00,
2013-04-09 23:38:00,52.2,28.0,29.88,WSW,248,2.0,7.0,39,0.00,,,0.03,VWS V14.01,2013-04-10 06:38:00,
2013-04-09 23:43:00,52.1,28.5,29.88,WSW,248,3.0,5.0,40,0.00,,,0.03,VWS V14.01,2013-04-10 06:43:00,
2013-04-09 23:48:00,51.9,28.4,29.88,WSW,248,1.0,6.0,40,0.00,,,0.03,VWS V14.01,2013-04-10 06:48:00,
2013-04-09 23:53:00,51.8,28.3,29.88,WSW,248,1.0,4.0,40,0.00,,,0.03,VWS V14.01,2013-04-10 06:53:00,
2013-04-09 23:58:00,51.8,28.9,29.88,WSW,248,5.0,5.0,41,0.00,,,0.03,VWS V14.01,2013-04-10 06:58:00,